Time;durP1;ratioP1;P1;durP2;ratioP2;P2;SDS_P1;SDS_P2;PMS_P1;PMS_P2;Temp;Humidity;BMP_temperature;BMP_pressure;BME280_temperature;BME280_humidity;BME280_pressure;Samples;Min_cycle;Max_cycle;Signal;HPM_P1;HPM_P2
2022/07/29 00:00:44;;;;;;;5.00;1.83;;;;;;;15.54;nan;101578.81;2033125;29;20048;-72
2022/07/29 00:01:48;;;;;;;7.45;1.95;;;;;;;15.55;nan;101571.50;2025041;29;20060;-71
2022/07/29 00:02:50;;;;;;;5.78;1.90;;;;;;;15.53;nan;101569.88;2017864;29;20057;-71
2022/07/29 00:03:53;;;;;;;4.70;2.05;;;;;;;15.49;nan;101566.13;2026032;29;20072;-70
2022/07/29 00:04:56;;;;;;;3.90;1.83;;;;;;;15.47;nan;101568.31;2025368;29;20045;-72
2022/07/29 00:06:05;;;;;;;4.43;1.67;;;;;;;15.47;nan;101562.09;2025678;29;20043;-72
2022/07/29 00:07:08;;;;;;;3.22;2.00;;;;;;;15.45;nan;101567.00;2017447;29;20048;-72
2022/07/29 00:08:10;;;;;;;6.05;1.88;;;;;;;15.46;nan;101566.69;2010312;29;20601;-71
2022/07/29 00:09:12;;;;;;;7.65;2.17;;;;;;;15.49;nan;101563.41;2024980;29;20052;-72
2022/07/29 00:10:17;;;;;;;3.38;2.03;;;;;;;15.50;nan;101570.44;2017936;29;20071;-72
2022/07/29 00:11:21;;;;;;;5.40;2.25;;;;;;;15.53;nan;101569.88;2025240;29;20056;-71
2022/07/29 00:12:27;;;;;;;6.30;2.28;;;;;;;15.54;nan;101567.97;2026758;29;20390;-71
2022/07/29 00:13:28;;;;;;;6.75;1.90;;;;;;;15.51;nan;101563.94;2017513;29;20037;-72
2022/07/29 00:14:33;;;;;;;6.68;1.90;;;;;;;15.52;nan;101565.56;2002980;29;20053;-71
2022/07/29 00:15:35;;;;;;;5.35;2.30;;;;;;;15.53;nan;101561.75;1995341;29;20460;-73
2022/07/29 00:16:37;;;;;;;4.80;1.55;;;;;;;15.56;nan;101563.06;2013947;29;20040;-72
2022/07/29 00:17:45;;;;;;;5.55;1.83;;;;;;;15.57;nan;101555.75;2016791;29;20056;-71
2022/07/29 00:18:47;;;;;;;2.63;1.67;;;;;;;15.56;nan;101559.56;2019225;29;20406;-71
2022/07/29 00:19:50;;;;;;;5.50;1.63;;;;;;;15.57;nan;101563.88;2033242;29;20116;-72
2022/07/29 00:20:55;;;;;;;4.18;1.70;;;;;;;15.57;nan;101563.88;2017127;29;20045;-72
2022/07/29 00:22:02;;;;;;;4.15;1.75;;;;;;;15.59;nan;101556.28;2019462;29;20045;-71
2022/07/29 00:23:08;;;;;;;3.10;1.63;;;;;;;15.59;nan;101564.41;2025188;29;20048;-72
2022/07/29 00:24:11;;;;;;;4.10;1.55;;;;;;;15.55;nan;101564.19;2024957;29;20053;-73
2022/07/29 00:25:16;;;;;;;3.47;1.60;;;;;;;15.55;nan;101560.66;2023832;29;20059;-73
2022/07/29 00:26:18;;;;;;;5.65;1.77;;;;;;;15.55;nan;101560.66;2025320;29;20048;-72
2022/07/29 00:27:25;;;;;;;5.22;1.55;;;;;;;15.54;nan;101559.81;2025111;29;20040;-72
2022/07/29 00:28:32;;;;;;;;;;;;;;;15.55;nan;101560.66;2011186;29;20052;-73
2022/07/29 00:29:33;;;;;;;6.22;2.45;;;;;;;15.56;nan;101564.97;2010140;29;19924;-73
2022/07/29 00:30:35;;;;;;;3.28;1.73;;;;;;;15.51;nan;101563.94;2010079;29;20045;-72
2022/07/29 00:31:37;;;;;;;6.40;2.10;;;;;;;15.50;nan;101567.72;2002202;29;20046;-72
2022/07/29 00:32:40;;;;;;;7.90;3.10;;;;;;;15.52;nan;101565.56;2010049;29;20569;-72
2022/07/29 00:33:47;;;;;;;2.90;1.75;;;;;;;15.53;nan;101567.16;2017189;29;20049;-72
2022/07/29 00:36:11;;;;;;;4.93;1.77;;;;;;;15.52;nan;101572.88;2014581;29;20053;-72
2022/07/29 00:37:13;;;;;;;4.50;1.60;;;;;;;15.49;nan;101574.25;2017450;29;20037;-72
2022/07/29 00:38:20;;;;;;;5.93;1.80;;;;;;;15.45;nan;101570.50;2010079;29;20045;-72
2022/07/29 00:39:21;;;;;;;3.47;1.77;;;;;;;15.43;nan;101567.28;2010838;29;20486;-72
2022/07/29 00:40:24;;;;;;;2.63;1.40;;;;;;;15.48;nan;101569.94;2024902;29;20043;-72
2022/07/29 00:41:30;;;;;;;2.97;1.60;;;;;;;15.47;nan;101567.50;2018097;29;20048;-72
2022/07/29 00:42:42;;;;;;;4.22;1.60;;;;;;;15.48;nan;101564.53;2025482;29;20047;-71
2022/07/29 00:43:46;;;;;;;4.35;1.65;;;;;;;15.50;nan;101565.03;2024991;29;20060;-72
2022/07/29 00:44:49;;;;;;;5.05;1.73;;;;;;;15.50;nan;101561.50;2024509;29;20060;-71
2022/07/29 00:45:53;;;;;;;5.40;2.20;;;;;;;15.46;nan;101566.69;2017585;29;20056;-72
2022/07/29 00:46:58;;;;;;;3.80;1.52;;;;;;;15.47;nan;101562.88;2017908;29;20049;-72
2022/07/29 00:48:04;;;;;;;4.25;1.75;;;;;;;15.46;nan;101569.41;2017932;29;20056;-72
2022/07/29 00:49:09;;;;;;;5.35;2.20;;;;;;;15.40;nan;101562.41;2024809;29;20071;-73
2022/07/29 00:50:12;;;;;;;6.75;1.75;;;;;;;15.33;nan;101556.53;2017950;29;20049;-72
2022/07/29 00:51:15;;;;;;;7.40;2.20;;;;;;;15.35;nan;101561.66;2017256;29;20049;-72
2022/07/29 00:52:19;;;;;;;5.47;1.85;;;;;;;15.34;nan;101562.75;2017529;29;20047;-72
2022/07/29 00:53:21;;;;;;;6.18;2.08;;;;;;;15.33;nan;101567.38;2025061;29;20060;-72
2022/07/29 00:54:23;;;;;;;4.22;1.80;;;;;;;15.31;nan;101566.84;2035889;29;20472;-72
2022/07/29 00:55:25;;;;;;;4.88;2.10;;;;;;;15.30;nan;101566.03;2040439;29;20070;-72
2022/07/29 00:56:29;;;;;;;5.93;2.00;;;;;;;15.30;nan;101567.94;2040488;29;20062;-72
2022/07/29 00:57:34;;;;;;;4.75;2.25;;;;;;;15.31;nan;101569.56;2032795;29;20492;-72
2022/07/29 00:58:37;;;;;;;5.53;1.98;;;;;;;15.33;nan;101561.97;2034052;29;20043;-73
2022/07/29 00:59:41;;;;;;;4.90;2.00;;;;;;;15.32;nan;101565.78;2032673;29;20044;-72
2022/07/29 01:00:43;;;;;;;7.50;2.13;;;;;;;15.32;nan;101570.34;2017406;29;20061;-72
2022/07/29 01:01:47;;;;;;;6.13;1.80;;;;;;;15.31;nan;101564.13;2024786;29;20056;-73
2022/07/29 01:02:53;;;;;;;5.35;1.65;;;;;;;15.31;nan;101564.13;2032520;29;20056;-71
2022/07/29 01:03:55;;;;;;;5.93;1.70;;;;;;;15.32;nan;101564.94;2032843;29;20059;-72
2022/07/29 01:04:58;;;;;;;5.13;2.00;;;;;;;15.33;nan;101564.66;2040056;29;20070;-72
2022/07/29 01:06:02;;;;;;;3.10;1.48;;;;;;;15.31;nan;101569.56;2039982;29;20054;-73
2022/07/29 01:07:07;;;;;;;6.53;1.95;;;;;;;15.34;nan;101560.84;2038004;29;20469;-73
2022/07/29 01:08:11;;;;;;;5.07;1.75;;;;;;;15.33;nan;101561.16;2024893;29;20056;-73
2022/07/29 01:09:15;;;;;;;3.13;1.80;;;;;;;15.33;nan;101566.56;2025026;29;20055;-73
2022/07/29 01:10:19;;;;;;;3.80;1.60;;;;;;;15.32;nan;101560.34;2045186;29;20053;-73
2022/07/29 01:11:23;;;;;;;3.90;1.63;;;;;;;15.32;nan;101563.06;2047184;29;20055;-73
2022/07/29 01:12:29;;;;;;;4.82;1.60;;;;;;;15.28;nan;101564.69;2032730;29;20051;-72
2022/07/29 01:13:37;;;;;;;4.75;2.00;;;;;;;15.23;nan;101562.88;2041318;29;20058;-71
2022/07/29 01:14:40;;;;;;;8.05;1.48;;;;;;;15.26;nan;101565.00;2039649;29;20404;-72
2022/07/29 01:15:49;;;;;;;6.55;2.13;;;;;;;15.26;nan;101573.13;2040811;29;20047;-72
2022/07/29 01:17:01;;;;;;;5.13;1.75;;;;;;;15.22;nan;101565.84;2045683;29;20050;-70
2022/07/29 01:18:22;;;;;;;3.67;1.70;;;;;;;15.21;nan;101559.63;2032601;29;20129;-72
2022/07/29 01:19:38;;;;;;;3.10;1.90;;;;;;;15.21;nan;101558.81;2026785;29;20509;-72
2022/07/29 01:21:02;;;;;;;3.40;2.03;;;;;;;15.19;nan;101567.22;2032841;29;20047;-72
2022/07/29 01:22:26;;;;;;;4.85;1.70;;;;;;;15.11;nan;101567.03;2032711;29;20115;-71
2022/07/29 01:23:49;;;;;;;3.03;1.60;;;;;;;15.07;nan;101564.91;2032852;29;20694;-73
2022/07/29 01:25:10;;;;;;;7.85;2.30;;;;;;;15.02;nan;101570.34;2029911;29;20060;-72
2022/07/29 01:26:45;;;;;;;2.95;1.80;;;;;;;14.99;nan;101565.50;2025508;29;20047;-72
2022/07/29 01:28:05;;;;;;;7.15;2.33;;;;;;;14.99;nan;101570.09;2024586;29;20386;-72
2022/07/29 01:29:26;;;;;;;5.85;1.95;;;;;;;14.99;nan;101568.22;2027894;29;20044;-72
2022/07/29 01:30:30;;;;;;;3.40;1.98;;;;;;;14.94;nan;101565.56;2025286;29;20052;-72
2022/07/29 01:31:44;;;;;;;8.25;2.22;;;;;;;14.97;nan;101575.78;2032420;29;20052;-72
2022/07/29 01:32:50;;;;;;;3.90;1.90;;;;;;;15.00;nan;101572.53;2034072;29;20133;-72
2022/07/29 01:33:59;;;;;;;4.72;1.77;;;;;;;15.00;nan;101564.41;2036849;29;20047;-71
2022/07/29 01:35:01;;;;;;;4.53;2.10;;;;;;;15.00;nan;101569.81;2040097;29;20056;-74
2022/07/29 01:36:10;;;;;;;4.55;2.28;;;;;;;14.98;nan;101569.31;2040439;29;20035;-73
2022/07/29 01:37:32;;;;;;;4.93;1.83;;;;;;;14.97;nan;101573.09;2032895;29;20071;-73
2022/07/29 01:38:37;;;;;;;5.13;1.70;;;;;;;14.99;nan;101562.78;2027443;29;20299;-73
2022/07/29 01:39:43;;;;;;;3.63;1.70;;;;;;;14.98;nan;101566.59;2032464;29;20452;-73
2022/07/29 01:40:58;;;;;;;4.05;2.10;;;;;;;15.00;nan;101564.41;2032772;29;20060;-73
2022/07/29 01:42:14;;;;;;;4.60;1.95;;;;;;;14.99;nan;101557.38;2032123;29;20052;-72
2022/07/29 01:43:20;;;;;;;3.97;1.80;;;;;;;14.96;nan;101563.34;2032769;29;20054;-73
2022/07/29 01:44:39;;;;;;;5.43;1.95;;;;;;;14.97;nan;101559.53;2032116;29;20083;-73
2022/07/29 01:45:43;;;;;;;4.15;1.90;;;;;;;14.97;nan;101559.53;2026959;29;20040;-73
2022/07/29 01:46:52;;;;;;;4.70;1.70;;;;;;;15.00;nan;101558.19;2032833;29;20040;-73
2022/07/29 01:48:04;;;;;;;4.25;1.92;;;;;;;15.01;nan;101560.63;2032228;29;20060;-73
2022/07/29 01:49:14;;;;;;;2.85;1.90;;;;;;;14.99;nan;101557.38;2032423;29;20052;-73
2022/07/29 01:50:21;;;;;;;7.50;2.20;;;;;;;14.92;nan;101556.09;2040467;29;20035;-73
2022/07/29 01:51:31;;;;;;;7.18;2.00;;;;;;;14.89;nan;101554.75;2024195;29;20063;-72
2022/07/29 01:52:42;;;;;;;4.00;1.98;;;;;;;14.87;nan;101556.13;2025954;29;20052;-72
2022/07/29 01:54:06;;;;;;;;;;;;;;;14.84;nan;101552.88;2032835;29;20044;-72
2022/07/29 01:55:15;;;;;;;3.67;2.08;;;;;;;14.81;nan;101545.31;2030254;29;19926;-73
2022/07/29 01:56:20;;;;;;;5.53;1.92;;;;;;;14.81;nan;101549.94;2048269;29;20050;-73
2022/07/29 01:57:27;;;;;;;5.38;2.10;;;;;;;14.82;nan;101555.09;2046864;29;20058;-73
2022/07/29 01:58:34;;;;;;;4.20;2.20;;;;;;;14.83;nan;101553.19;2033006;29;20495;-73
2022/07/29 01:59:38;;;;;;;5.80;1.77;;;;;;;14.82;nan;101552.38;2032484;29;20047;-72
2022/07/29 02:00:42;;;;;;;3.92;1.85;;;;;;;14.85;nan;101553.72;2032379;29;20412;-72
2022/07/29 02:01:46;;;;;;;6.03;2.10;;;;;;;14.86;nan;101549.09;2033203;29;20056;-72
2022/07/29 02:02:50;;;;;;;2.88;1.70;;;;;;;14.87;nan;101554.22;2032402;29;20044;-71
2022/07/29 02:03:57;;;;;;;3.97;1.80;;;;;;;14.86;nan;101541.78;2033101;29;20527;-71
2022/07/29 02:05:02;;;;;;;3.70;2.00;;;;;;;14.82;nan;101551.56;2039992;29;20047;-73
2022/07/29 02:06:09;;;;;;;6.22;1.80;;;;;;;14.84;nan;101552.88;2041107;29;20418;-74
2022/07/29 02:07:15;;;;;;;5.28;2.00;;;;;;;14.84;nan;101543.94;2033386;29;20036;-74
2022/07/29 02:08:19;;;;;;;5.45;2.10;;;;;;;14.83;nan;101551.28;2035064;29;20036;-74
2022/07/29 02:09:21;;;;;;;12.45;2.17;;;;;;;14.84;nan;101550.16;2034169;29;20048;-74
2022/07/29 02:10:31;;;;;;;2.80;1.45;;;;;;;14.83;nan;101548.56;2020485;29;20536;-74
2022/07/29 02:11:35;;;;;;;5.57;2.05;;;;;;;14.85;nan;101556.41;2027592;29;20076;-74
2022/07/29 02:12:39;;;;;;;5.05;1.70;;;;;;;14.86;nan;101552.63;2034353;29;20043;-74
2022/07/29 02:13:42;;;;;;;3.53;1.52;;;;;;;14.89;nan;101557.47;2034205;29;20047;-74
2022/07/29 02:14:50;;;;;;;3.28;1.60;;;;;;;14.89;nan;101554.75;2033937;29;20040;-73
2022/07/29 02:15:54;;;;;;;4.03;1.60;;;;;;;14.89;nan;101560.16;2041901;29;20048;-72
2022/07/29 02:17:02;;;;;;;6.63;1.70;;;;;;;14.87;nan;101554.22;2047903;29;20058;-72
2022/07/29 02:18:10;;;;;;;3.22;1.50;;;;;;;14.83;nan;101558.59;2040566;29;20051;-74
2022/07/29 02:19:15;;;;;;;3.10;1.65;;;;;;;14.78;nan;101562.13;2041415;29;20361;-74
2022/07/29 02:20:19;;;;;;;3.85;1.50;;;;;;;14.79;nan;101562.97;2038069;29;20396;-74
2022/07/29 02:21:24;;;;;;;3.00;1.50;;;;;;;14.78;nan;101559.41;2026826;29;20044;-73
2022/07/29 02:22:29;;;;;;;4.93;1.60;;;;;;;14.74;nan;101565.69;2026832;29;20036;-74
2022/07/29 02:23:36;;;;;;;5.18;1.98;;;;;;;14.69;nan;101563.00;2026102;29;20048;-74
2022/07/29 02:24:41;;;;;;;3.00;1.75;;;;;;;14.64;nan;101563.06;2019273;29;20041;-73
2022/07/29 02:25:51;;;;;;;6.15;2.83;;;;;;;14.67;nan;101559.78;2026802;29;20044;-74
2022/07/29 02:27:01;;;;;;;4.50;1.90;;;;;;;14.63;nan;101558.72;2027780;29;20437;-72
2022/07/29 02:28:05;;;;;;;2.67;1.90;;;;;;;14.59;nan;101562.00;2034226;29;20420;-73
2022/07/29 02:29:09;;;;;;;5.13;2.20;;;;;;;14.60;nan;101555.50;2034467;29;20044;-73
2022/07/29 02:30:13;;;;;;;5.25;2.17;;;;;;;14.59;nan;101559.28;2026001;29;20051;-72
2022/07/29 02:31:18;;;;;;;4.55;1.80;;;;;;;14.58;nan;101560.38;2026219;29;20623;-72
2022/07/29 02:32:23;;;;;;;4.35;2.03;;;;;;;14.56;nan;101561.75;2034156;29;20032;-72
2022/07/29 02:33:26;;;;;;;3.42;2.10;;;;;;;14.57;nan;101555.25;2034007;29;20047;-72
2022/07/29 02:34:33;;;;;;;3.72;1.90;;;;;;;14.58;nan;101560.38;2026836;29;20063;-72
2022/07/29 02:35:40;;;;;;;4.13;1.70;;;;;;;14.58;nan;101557.69;2025886;29;20048;-72
2022/07/29 02:36:45;;;;;;;4.82;2.00;;;;;;;14.57;nan;101564.19;2032392;29;20067;-72
2022/07/29 02:39:15;;;;;;;2.97;2.20;;;;;;;14.57;nan;101561.47;2033857;29;20044;-72
2022/07/29 02:40:19;;;;;;;3.30;1.65;;;;;;;14.58;nan;101567.69;2033821;29;20051;-72
2022/07/29 02:41:41;;;;;;;5.20;2.15;;;;;;;14.57;nan;101566.09;2033960;29;20040;-72
2022/07/29 02:42:46;;;;;;;4.93;2.20;;;;;;;14.60;nan;101566.34;2026032;29;20485;-72
2022/07/29 02:43:53;;;;;;;4.03;1.90;;;;;;;14.55;nan;101562.84;2026075;29;20057;-71
2022/07/29 02:44:55;;;;;;;5.18;1.70;;;;;;;14.54;nan;101562.03;2026915;29;20056;-71
2022/07/29 02:46:00;;;;;;;3.00;1.80;;;;;;;14.55;nan;101562.84;2031292;29;20032;-71
2022/07/29 02:47:19;;;;;;;5.60;1.90;;;;;;;14.56;nan;101564.44;2033854;29;20444;-72
2022/07/29 02:48:32;;;;;;;3.42;1.88;;;;;;;14.59;nan;101564.69;2033605;29;20055;-72
2022/07/29 02:49:51;;;;;;;6.90;1.88;;;;;;;14.62;nan;101562.53;2027728;29;20048;-73
2022/07/29 02:51:01;;;;;;;5.60;1.80;;;;;;;14.59;nan;101567.41;2035693;29;20036;-72
2022/07/29 02:52:08;;;;;;;7.28;1.88;;;;;;;14.64;nan;101563.06;2039926;29;20054;-73
2022/07/29 02:53:18;;;;;;;2.75;1.60;;;;;;;14.58;nan;101556.88;2034176;29;20035;-74
2022/07/29 02:54:30;;;;;;;4.97;1.92;;;;;;;14.53;nan;101563.13;2037511;29;20067;-74
2022/07/29 02:55:42;;;;;;;3.30;1.90;;;;;;;14.54;nan;101561.25;2041362;29;20546;-74
2022/07/29 02:56:46;;;;;;;3.33;1.55;;;;;;;14.53;nan;101563.13;2041463;29;20066;-73
2022/07/29 02:58:02;;;;;;;4.05;1.80;;;;;;;14.54;nan;101562.03;2041829;29;20043;-72
2022/07/29 02:59:10;;;;;;;4.50;1.77;;;;;;;14.59;nan;101559.28;2041545;29;20032;-73
2022/07/29 03:00:13;;;;;;;8.35;2.30;;;;;;;14.62;nan;101562.53;2033612;29;20036;-72
2022/07/29 03:01:20;;;;;;;3.97;1.83;;;;;;;14.63;nan;101561.44;2026113;29;20067;-72
2022/07/29 03:02:25;;;;;;;4.35;1.98;;;;;;;14.63;nan;101559.56;2025829;29;20056;-73
2022/07/29 03:03:35;;;;;;;3.65;2.00;;;;;;;14.64;nan;101572.00;2026432;29;20045;-73
2022/07/29 03:04:40;;;;;;;6.75;2.05;;;;;;;14.64;nan;101560.38;2033760;29;20039;-73
2022/07/29 03:05:45;;;;;;;3.92;2.20;;;;;;;14.64;nan;101563.88;2025920;29;20532;-73
2022/07/29 03:06:52;;;;;;;2.67;1.70;;;;;;;14.64;nan;101563.88;2031777;29;20044;-73
2022/07/29 03:08:06;;;;;;;4.97;2.08;;;;;;;14.69;nan;101563.00;2027865;29;20040;-70
2022/07/29 03:09:10;;;;;;;7.95;2.50;;;;;;;14.70;nan;101554.63;2040929;29;20031;-72
2022/07/29 03:10:19;;;;;;;7.18;2.00;;;;;;;14.76;nan;101558.13;2041065;29;20039;-71
2022/07/29 03:11:25;;;;;;;4.88;2.30;;;;;;;14.76;nan;101553.50;2033451;29;20047;-72
2022/07/29 03:12:30;;;;;;;6.05;2.40;;;;;;;14.78;nan;101555.91;2040099;29;20083;-72
2022/07/29 03:13:36;;;;;;;6.47;1.98;;;;;;;14.77;nan;101551.59;2041976;29;20046;-72
2022/07/29 03:14:39;;;;;;;5.93;2.30;;;;;;;14.80;nan;101553.75;2041625;29;20055;-72
2022/07/29 03:15:43;;;;;;;4.38;1.83;;;;;;;14.84;nan;101552.88;2033519;29;20048;-72
2022/07/29 03:16:47;;;;;;;4.80;2.05;;;;;;;14.87;nan;101554.22;2033499;29;20059;-71
2022/07/29 03:17:50;;;;;;;2.25;1.70;;;;;;;14.90;nan;101548.25;2041169;29;20368;-70
2022/07/29 03:18:58;;;;;;;5.10;1.42;;;;;;;14.96;nan;101547.09;2033651;29;20117;-72
2022/07/29 03:20:01;;;;;;;3.35;1.80;;;;;;;15.06;nan;101552.44;2028212;29;20405;-71
2022/07/29 03:21:03;;;;;;;6.18;2.10;;;;;;;15.13;nan;101549.41;2033476;29;20079;-72
2022/07/29 03:22:06;;;;;;;3.38;1.80;;;;;;;15.16;nan;101546.09;2025976;29;20412;-72
2022/07/29 03:23:11;;;;;;;3.42;1.85;;;;;;;15.23;nan;101548.50;2033665;29;20485;-72
2022/07/29 03:24:33;;;;;;;7.20;1.90;;;;;;;15.31;nan;101553.28;2041146;29;20062;-72
2022/07/29 03:25:35;;;;;;;6.13;1.75;;;;;;;15.41;nan;101558.59;2041657;29;20496;-72
2022/07/29 03:26:38;;;;;;;4.70;1.75;;;;;;;15.48;nan;101550.16;2041980;29;20377;-72
2022/07/29 03:27:44;;;;;;;4.20;2.28;;;;;;;15.51;nan;101547.69;2033104;29;20060;-72
2022/07/29 03:28:52;;;;;;;2.90;1.50;;;;;;;15.56;nan;101548.72;2048379;29;20043;-71
2022/07/29 03:29:55;;;;;;;3.20;1.45;;;;;;;15.59;nan;101557.06;2039663;29;20055;-71
2022/07/29 03:30:57;;;;;;;7.05;1.88;;;;;;;15.57;nan;101555.75;2033992;29;20051;-71
2022/07/29 03:32:02;;;;;;;4.28;1.52;;;;;;;15.61;nan;101559.50;2033578;29;20531;-72
2022/07/29 03:33:04;;;;;;;3.05;1.80;;;;;;;15.64;nan;101556.22;2033972;29;20514;-71
2022/07/29 03:34:06;;;;;;;2.97;1.88;;;;;;;15.70;nan;101553.19;2032559;29;20043;-72
2022/07/29 03:35:09;;;;;;;3.47;1.80;;;;;;;15.78;nan;101559.88;2032054;29;20607;-72
2022/07/29 03:36:11;;;;;;;1.88;1.60;;;;;;;15.83;nan;101557.13;2034262;29;20047;-72
2022/07/29 03:37:15;;;;;;;4.30;1.70;;;;;;;15.89;nan;101553.25;2031432;29;20040;-72
2022/07/29 03:38:19;;;;;;;5.30;1.60;;;;;;;16.01;nan;101554.72;2024306;29;20045;-72
2022/07/29 03:39:26;;;;;;;4.00;1.67;;;;;;;16.10;nan;101558.41;2032008;29;20047;-72
2022/07/29 03:40:31;;;;;;;4.30;1.77;;;;;;;16.24;nan;101553.88;2038689;29;20070;-72
2022/07/29 03:41:36;;;;;;;6.30;1.80;;;;;;;16.32;nan;101555.94;2039288;29;20048;-72
2022/07/29 03:42:42;;;;;;;4.88;1.63;;;;;;;16.43;nan;101560.13;2032202;29;20044;-72
2022/07/29 03:43:47;;;;;;;4.68;1.70;;;;;;;16.50;nan;101561.69;2032137;29;20051;-72
2022/07/29 03:44:52;;;;;;;6.68;1.70;;;;;;;16.59;nan;101559.91;2024617;29;20040;-72
2022/07/29 03:45:57;;;;;;;1.85;1.25;;;;;;;16.68;nan;101563.56;2031754;29;20056;-71
2022/07/29 03:47:01;;;;;;;3.28;1.50;;;;;;;16.75;nan;101561.31;2040420;29;20047;-73
2022/07/29 03:48:10;;;;;;;13.50;2.30;;;;;;;16.82;nan;101559.03;2035326;29;20079;-73
2022/07/29 03:49:15;;;;;;;5.57;1.60;;;;;;;16.82;nan;101560.94;2031710;29;20059;-73
2022/07/29 03:50:21;;;;;;;3.58;1.30;;;;;;;16.89;nan;101561.38;2032794;29;20044;-73
2022/07/29 03:51:23;;;;;;;2.92;1.60;;;;;;;16.86;nan;101560.03;2028126;29;20047;-72
2022/07/29 03:52:24;;;;;;;3.72;1.25;;;;;;;16.83;nan;101560.63;2032076;29;20650;-73
2022/07/29 03:53:25;;;;;;;3.58;1.60;;;;;;;16.60;nan;101566.94;2031590;29;20062;-73
2022/07/29 03:54:32;;;;;;;2.53;1.40;;;;;;;16.40;nan;101566.16;2024439;29;20068;-73
2022/07/29 03:55:40;;;;;;;3.30;1.50;;;;;;;16.25;nan;101566.34;2018269;29;20103;-72
2022/07/29 03:56:47;;;;;;;4.75;1.92;;;;;;;16.29;nan;101567.38;2033214;29;20055;-73
2022/07/29 03:57:52;;;;;;;4.50;1.90;;;;;;;16.27;nan;101563.34;2040577;29;20039;-72
2022/07/29 03:58:55;;;;;;;2.72;1.65;;;;;;;16.15;nan;101569.22;2031231;29;20654;-72
2022/07/29 03:59:58;;;;;;;2.80;1.60;;;;;;;16.05;nan;101566.63;2024397;29;20052;-73
2022/07/29 04:01:02;;;;;;;2.20;1.50;;;;;;;15.98;nan;101569.66;2032311;29;20764;-72
2022/07/29 04:02:06;;;;;;;5.18;2.13;;;;;;;15.96;nan;101575.41;2032029;29;20496;-73
2022/07/29 04:03:09;;;;;;;3.13;1.50;;;;;;;15.96;nan;101569.97;2025175;29;20036;-73
2022/07/29 04:04:11;;;;;;;5.88;1.88;;;;;;;15.93;nan;101570.56;2040370;29;20043;-73
2022/07/29 04:05:14;;;;;;;2.63;1.70;;;;;;;15.89;nan;101566.81;2040055;29;20035;-72
2022/07/29 04:06:16;;;;;;;4.97;2.00;;;;;;;15.88;nan;101559.75;2031873;29;20732;-72
2022/07/29 04:07:21;;;;;;;7.32;2.00;;;;;;;15.83;nan;101567.97;2034279;29;20071;-72
2022/07/29 04:08:22;;;;;;;3.15;1.92;;;;;;;15.81;nan;101566.63;2047893;29;20035;-73
2022/07/29 04:09:24;;;;;;;6.93;2.00;;;;;;;15.81;nan;101561.22;2047249;29;20067;-73
2022/07/29 04:10:26;;;;;;;3.95;1.90;;;;;;;15.78;nan;101562.59;2040901;29;20700;-73
2022/07/29 04:11:31;;;;;;;4.53;1.77;;;;;;;15.76;nan;101562.06;2039143;29;20062;-72
2022/07/29 04:12:37;;;;;;;3.00;2.05;;;;;;;15.75;nan;101569.41;2046257;29;20059;-73
2022/07/29 04:13:42;;;;;;;6.15;2.10;;;;;;;15.74;nan;101567.78;2039378;29;20063;-74
2022/07/29 04:14:46;;;;;;;3.05;1.88;;;;;;;15.74;nan;101572.41;2031620;29;20047;-73
2022/07/29 04:15:49;;;;;;;5.47;2.10;;;;;;;15.75;nan;101568.59;2028226;29;20067;-73
2022/07/29 04:16:50;;;;;;;3.58;2.25;;;;;;;15.73;nan;101571.59;2023750;29;20044;-73
2022/07/29 04:17:54;;;;;;;5.32;2.40;;;;;;;15.73;nan;101568.06;2024154;29;20044;-73
2022/07/29 04:18:57;;;;;;;6.57;2.45;;;;;;;15.68;nan;101570.84;2024460;29;20048;-73
2022/07/29 04:19:59;;;;;;;6.63;2.20;;;;;;;15.70;nan;101571.38;2030512;29;20432;-73
2022/07/29 04:21:05;;;;;;;5.47;1.80;;;;;;;15.75;nan;101571.31;2032102;29;20040;-73
2022/07/29 04:22:07;;;;;;;3.70;1.95;;;;;;;16.02;nan;101567.22;2039461;29;20066;-73
2022/07/29 04:23:09;;;;;;;5.78;2.00;;;;;;;16.31;nan;101570.63;2031671;29;20056;-74
2022/07/29 04:24:14;;;;;;;3.08;1.63;;;;;;;16.56;nan;101579.50;2031383;29;20048;-74
2022/07/29 04:25:15;;;;;;;2.53;1.65;;;;;;;16.45;nan;101566.06;2016655;29;20045;-74
2022/07/29 04:26:18;;;;;;;2.35;1.65;;;;;;;16.30;nan;101569.00;2023688;29;20060;-74
2022/07/29 04:27:20;;;;;;;3.03;1.50;;;;;;;16.33;nan;101567.59;2039876;29;20472;-74
2022/07/29 04:28:25;;;;;;;4.40;1.33;;;;;;;16.23;nan;101579.41;2031387;29;20499;-74
2022/07/29 04:29:29;;;;;;;5.80;2.70;;;;;;;16.41;nan;101581.31;2031974;29;20052;-73
2022/07/29 04:30:34;;;;;;;9.65;3.10;;;;;;;16.73;nan;101577.06;2039815;29;20137;-74
2022/07/29 04:31:38;;;;;;;10.80;2.75;;;;;;;16.72;nan;101577.38;2040183;29;20050;-73
2022/07/29 04:32:43;;;;;;;6.07;2.72;;;;;;;16.56;nan;101577.59;2030930;29;20052;-74
2022/07/29 04:33:44;;;;;;;5.25;2.72;;;;;;;16.47;nan;101575.84;2021327;29;20045;-74
2022/07/29 04:34:47;;;;;;;6.35;2.03;;;;;;;16.70;nan;101580.38;2016458;29;20065;-73
2022/07/29 04:35:49;;;;;;;4.85;1.95;;;;;;;16.84;nan;101577.75;2024484;29;20048;-73
2022/07/29 04:36:51;;;;;;;5.82;1.80;;;;;;;17.11;nan;101577.03;2039074;29;20063;-73
2022/07/29 04:37:54;;;;;;;6.88;2.85;;;;;;;17.15;nan;101580.78;2039555;29;20424;-73
2022/07/29 04:38:58;;;;;;;4.55;2.38;;;;;;;17.01;nan;101582.63;2031476;29;20469;-72
2022/07/29 04:39:59;;;;;;;6.40;2.53;;;;;;;17.18;nan;101577.47;2039724;29;20492;-73
2022/07/29 04:41:01;;;;;;;5.13;2.83;;;;;;;17.36;nan;101571.16;2039133;29;20067;-73
2022/07/29 04:42:03;;;;;;;6.30;2.97;;;;;;;17.26;nan;101578.69;2031947;29;20068;-72
2022/07/29 04:43:06;;;;;;;4.30;2.60;;;;;;;17.39;nan;101575.19;2039401;29;20047;-73
2022/07/29 04:44:08;;;;;;;7.18;3.20;;;;;;;17.64;nan;101567.66;2031379;29;20056;-73
2022/07/29 04:45:10;;;;;;;6.50;3.22;;;;;;;17.83;nan;101571.94;2016960;29;20619;-73
2022/07/29 04:46:12;;;;;;;6.07;3.45;;;;;;;18.05;nan;101573.13;2032108;29;20655;-73
2022/07/29 04:47:17;;;;;;;4.25;2.70;;;;;;;18.22;nan;101570.59;2039627;29;20027;-74
2022/07/29 04:48:21;;;;;;;4.85;2.53;;;;;;;18.40;nan;101568.81;2040111;29;20054;-74
2022/07/29 04:49:23;;;;;;;6.22;2.15;;;;;;;18.56;nan;101565.75;2039954;29;20048;-73
2022/07/29 04:50:27;;;;;;;9.35;1.83;;;;;;;18.54;nan;101560.63;2031172;29;20067;-75
2022/07/29 04:51:30;;;;;;;4.05;1.70;;;;;;;18.31;nan;101570.66;2032002;29;20044;-73
2022/07/29 04:52:33;;;;;;;6.10;2.13;;;;;;;18.16;nan;101574.53;2046927;29;20130;-74
2022/07/29 04:53:38;;;;;;;7.72;2.70;;;;;;;18.06;nan;101569.28;2030287;29;20110;-73
2022/07/29 04:54:42;;;;;;;4.97;2.67;;;;;;;17.91;nan;101564.97;2032007;29;20162;-72
2022/07/29 04:55:47;;;;;;;8.13;3.67;;;;;;;17.78;nan;101563.88;2042475;29;20059;-72
2022/07/29 04:56:50;;;;;;;9.10;3.30;;;;;;;17.73;nan;101563.94;2031256;29;20044;-72
2022/07/29 04:57:54;;;;;;;6.05;2.60;;;;;;;17.68;nan;101566.75;2030483;29;20055;-72
2022/07/29 04:58:57;;;;;;;3.95;2.50;;;;;;;17.65;nan;101578.22;2038991;29;20077;-71
2022/07/29 05:00:00;;;;;;;3.72;2.30;;;;;;;17.55;nan;101564.84;2038929;29;20043;-72
2022/07/29 05:01:02;;;;;;;6.57;2.85;;;;;;;17.53;nan;101567.06;2031312;29;20043;-72
2022/07/29 05:02:05;;;;;;;6.68;2.92;;;;;;;17.49;nan;101566.84;2030852;29;20044;-72
2022/07/29 05:03:07;;;;;;;7.13;2.83;;;;;;;17.48;nan;101572.59;2023656;29;20051;-72
2022/07/29 05:04:10;;;;;;;6.28;2.67;;;;;;;17.50;nan;101573.91;2016348;29;20036;-72
2022/07/29 05:05:11;;;;;;;12.27;6.15;;;;;;;17.64;nan;101568.47;2023773;29;20045;-73
2022/07/29 05:06:14;;;;;;;7.57;3.90;;;;;;;17.89;nan;101569.91;2031495;29;20327;-73
2022/07/29 05:07:19;;;;;;;10.25;3.28;;;;;;;18.13;nan;101566.97;2038270;29;20114;-73
2022/07/29 05:08:20;;;;;;;11.35;3.38;;;;;;;18.37;nan;101569.44;2032321;29;20052;-72
2022/07/29 05:09:23;;;;;;;6.57;3.20;;;;;;;18.48;nan;101575.47;2047024;29;20054;-72
2022/07/29 05:10:25;;;;;;;11.55;3.63;;;;;;;18.44;nan;101569.00;2046882;29;20035;-72
2022/07/29 05:11:27;;;;;;;7.53;2.92;;;;;;;18.36;nan;101570.56;2036823;29;20391;-72
2022/07/29 05:12:29;;;;;;;6.22;3.10;;;;;;;18.29;nan;101573.69;2038461;29;20036;-72
2022/07/29 05:13:31;;;;;;;6.63;3.30;;;;;;;18.37;nan;101576.81;2046556;29;20051;-72
2022/07/29 05:14:33;;;;;;;6.07;2.72;;;;;;;18.55;nan;101573.13;2037340;29;20512;-72
2022/07/29 05:15:36;;;;;;;6.75;2.80;;;;;;;18.72;nan;101572.44;2030227;29;20102;-72